sensor_id;sensor_type;location;lat;lon;timestamp;pressure;altitude;pressure_sealevel;temperature;humidity
29215;BME280;16252;49.816;7.964;2022-09-09T00:01:11;99506.19;;;20.76;55.43
29215;BME280;16252;49.816;7.964;2022-09-09T00:06:21;99483.59;;;20.54;55.54
29215;BME280;16252;49.816;7.964;2022-09-09T00:11:26;99481.53;;;20.56;55.91
29215;BME280;16252;49.816;7.964;2022-09-09T00:13:55;99492.28;;;20.50;55.87
29215;BME280;16252;49.816;7.964;2022-09-09T00:16:25;99493.22;;;20.57;55.95
29215;BME280;16252;49.816;7.964;2022-09-09T00:24:43;99498.50;;;20.44;55.75
29215;BME280;16252;49.816;7.964;2022-09-09T00:27:17;99490.47;;;20.35;55.94
29215;BME280;16252;49.816;7.964;2022-09-09T00:30:15;99495.56;;;20.45;55.50
29215;BME280;16252;49.816;7.964;2022-09-09T00:32:44;99486.59;;;20.23;56.32
29215;BME280;16252;49.816;7.964;2022-09-09T00:37:35;99487.16;;;20.19;56.73
29215;BME280;16252;49.816;7.964;2022-09-09T00:40:02;99471.56;;;20.06;56.78
29215;BME280;16252;49.816;7.964;2022-09-09T00:42:41;99474.06;;;20.07;56.61
29215;BME280;16252;49.816;7.964;2022-09-09T00:46:27;99498.19;;;20.17;56.52
29215;BME280;16252;49.816;7.964;2022-09-09T00:48:22;99464.41;;;19.83;56.93
29215;BME280;16252;49.816;7.964;2022-09-09T00:50:56;99483.44;;;20.05;57.12
29215;BME280;16252;49.816;7.964;2022-09-09T00:56:15;99469.31;;;19.95;57.26
29215;BME280;16252;49.816;7.964;2022-09-09T00:58:53;99462.34;;;19.85;57.05
29215;BME280;16252;49.816;7.964;2022-09-09T01:01:23;99473.19;;;19.85;57.02
29215;BME280;16252;49.816;7.964;2022-09-09T01:03:55;99466.44;;;19.81;57.31
29215;BME280;16252;49.816;7.964;2022-09-09T01:06:29;99491.59;;;19.90;57.50
29215;BME280;16252;49.816;7.964;2022-09-09T01:12:01;99478.03;;;19.90;57.53
29215;BME280;16252;49.816;7.964;2022-09-09T01:17:04;99486.28;;;19.82;57.99
29215;BME280;16252;49.816;7.964;2022-09-09T01:19:45;99467.50;;;19.80;57.54
29215;BME280;16252;49.816;7.964;2022-09-09T01:28:11;99466.75;;;19.72;57.84
29215;BME280;16252;49.816;7.964;2022-09-09T01:30:40;99472.25;;;19.63;57.77
29215;BME280;16252;49.816;7.964;2022-09-09T01:33:10;99448.13;;;19.54;57.82
29215;BME280;16252;49.816;7.964;2022-09-09T01:36:00;99479.75;;;19.76;57.58
29215;BME280;16252;49.816;7.964;2022-09-09T01:38:29;99458.59;;;19.57;57.94
29215;BME280;16252;49.816;7.964;2022-09-09T01:40:55;99417.28;;;19.25;57.97
29215;BME280;16252;49.816;7.964;2022-09-09T01:43:21;99488.00;;;19.68;58.03
29215;BME280;16252;49.816;7.964;2022-09-09T01:45:49;99494.09;;;19.70;58.07
29215;BME280;16252;49.816;7.964;2022-09-09T01:48:17;99494.44;;;19.67;58.07
29215;BME280;16252;49.816;7.964;2022-09-09T01:50:43;99467.09;;;19.54;58.12
29215;BME280;16252;49.816;7.964;2022-09-09T01:53:09;99493.44;;;19.68;58.05
29215;BME280;16252;49.816;7.964;2022-09-09T01:55:41;99497.72;;;19.77;58.05
29215;BME280;16252;49.816;7.964;2022-09-09T01:58:22;99484.25;;;19.69;57.91
29215;BME280;16252;49.816;7.964;2022-09-09T02:01:13;99491.53;;;19.83;57.71
29215;BME280;16252;49.816;7.964;2022-09-09T02:03:44;99468.31;;;19.66;57.82
29215;BME280;16252;49.816;7.964;2022-09-09T02:06:32;99486.78;;;19.85;57.68
29215;BME280;16252;49.816;7.964;2022-09-09T02:09:01;99477.59;;;19.72;57.75
29215;BME280;16252;49.816;7.964;2022-09-09T02:11:29;99493.31;;;19.76;57.86
29215;BME280;16252;49.816;7.964;2022-09-09T02:13:59;99486.84;;;19.77;57.97
29215;BME280;16252;49.816;7.964;2022-09-09T02:16:32;99473.28;;;19.62;58.04
29215;BME280;16252;49.816;7.964;2022-09-09T02:19:09;99493.16;;;19.78;57.69
29215;BME280;16252;49.816;7.964;2022-09-09T02:21:39;99480.22;;;19.65;57.99
29215;BME280;16252;49.816;7.964;2022-09-09T02:24:08;99472.44;;;19.62;57.98
29215;BME280;16252;49.816;7.964;2022-09-09T02:26:39;99475.34;;;19.60;58.07
29215;BME280;16252;49.816;7.964;2022-09-09T02:29:07;99492.47;;;19.90;56.56
29215;BME280;16252;49.816;7.964;2022-09-09T02:31:33;99483.75;;;19.65;57.56
29215;BME280;16252;49.816;7.964;2022-09-09T02:34:01;99498.66;;;19.69;57.73
29215;BME280;16252;49.816;7.964;2022-09-09T02:36:31;99490.03;;;19.66;57.89
29215;BME280;16252;49.816;7.964;2022-09-09T02:38:59;99478.72;;;19.62;58.01
29215;BME280;16252;49.816;7.964;2022-09-09T02:41:31;99480.38;;;19.63;58.05
29215;BME280;16252;49.816;7.964;2022-09-09T02:43:57;99444.19;;;19.41;58.07
29215;BME280;16252;49.816;7.964;2022-09-09T02:49:00;99473.66;;;19.59;58.22
29215;BME280;16252;49.816;7.964;2022-09-09T02:56:38;99440.47;;;19.42;58.28
29215;BME280;16252;49.816;7.964;2022-09-09T02:59:05;99435.59;;;19.38;58.38
29215;BME280;16252;49.816;7.964;2022-09-09T03:01:31;99450.44;;;19.42;58.37
29215;BME280;16252;49.816;7.964;2022-09-09T03:03:56;99455.41;;;19.38;58.35
29215;BME280;16252;49.816;7.964;2022-09-09T03:06:22;99449.72;;;19.33;58.44
29215;BME280;16252;49.816;7.964;2022-09-09T03:08:47;99443.63;;;19.31;58.61
29215;BME280;16252;49.816;7.964;2022-09-09T03:11:15;99465.06;;;19.41;58.47
29215;BME280;16252;49.816;7.964;2022-09-09T03:13:40;99449.06;;;19.31;58.65
29215;BME280;16252;49.816;7.964;2022-09-09T03:16:05;99452.16;;;19.28;58.54
29215;BME280;16252;49.816;7.964;2022-09-09T03:18:30;99464.03;;;19.27;58.69
29215;BME280;16252;49.816;7.964;2022-09-09T03:20:57;99466.25;;;19.23;58.73
29215;BME280;16252;49.816;7.964;2022-09-09T03:23:23;99413.59;;;18.88;58.74
29215;BME280;16252;49.816;7.964;2022-09-09T03:25:50;99432.59;;;19.03;58.85
29215;BME280;16252;49.816;7.964;2022-09-09T03:28:16;99477.88;;;19.32;58.96
29215;BME280;16252;49.816;7.964;2022-09-09T03:30:41;99484.13;;;19.33;59.08
29215;BME280;16252;49.816;7.964;2022-09-09T03:33:07;99476.38;;;19.30;59.07
29215;BME280;16252;49.816;7.964;2022-09-09T03:35:32;99473.09;;;19.34;59.00
29215;BME280;16252;49.816;7.964;2022-09-09T03:37:58;99475.78;;;19.34;58.94
29215;BME280;16252;49.816;7.964;2022-09-09T03:40:23;99452.03;;;19.21;58.98
29215;BME280;16252;49.816;7.964;2022-09-09T03:42:48;99435.97;;;19.20;59.05
29215;BME280;16252;49.816;7.964;2022-09-09T03:45:13;99478.34;;;19.36;59.02
29215;BME280;16252;49.816;7.964;2022-09-09T03:47:39;99475.25;;;19.39;59.07
29215;BME280;16252;49.816;7.964;2022-09-09T03:50:06;99467.94;;;19.39;58.90
29215;BME280;16252;49.816;7.964;2022-09-09T03:52:38;99468.16;;;19.38;59.24
29215;BME280;16252;49.816;7.964;2022-09-09T03:55:03;99476.84;;;19.63;57.28
29215;BME280;16252;49.816;7.964;2022-09-09T03:57:29;99471.69;;;19.38;58.67
29215;BME280;16252;49.816;7.964;2022-09-09T03:59:55;99468.31;;;19.36;58.65
29215;BME280;16252;49.816;7.964;2022-09-09T04:02:20;99451.03;;;19.22;58.89
29215;BME280;16252;49.816;7.964;2022-09-09T04:04:46;99468.03;;;19.31;59.10
29215;BME280;16252;49.816;7.964;2022-09-09T04:07:11;99463.66;;;19.30;59.06
29215;BME280;16252;49.816;7.964;2022-09-09T04:09:36;99462.81;;;19.30;59.02
29215;BME280;16252;49.816;7.964;2022-09-09T04:12:02;99463.16;;;19.26;59.16
29215;BME280;16252;49.816;7.964;2022-09-09T04:14:27;99428.66;;;19.05;59.00
29215;BME280;16252;49.816;7.964;2022-09-09T04:16:54;99464.22;;;19.25;59.22
29215;BME280;16252;49.816;7.964;2022-09-09T04:19:20;99442.31;;;19.12;59.17
29215;BME280;16252;49.816;7.964;2022-09-09T04:21:45;99464.75;;;19.21;59.00
29215;BME280;16252;49.816;7.964;2022-09-09T04:24:10;99478.59;;;19.26;59.26
29215;BME280;16252;49.816;7.964;2022-09-09T04:26:36;99485.91;;;19.25;59.17
29215;BME280;16252;49.816;7.964;2022-09-09T04:29:03;99476.28;;;19.23;59.13
29215;BME280;16252;49.816;7.964;2022-09-09T04:31:29;99432.94;;;18.85;59.37
29215;BME280;16252;49.816;7.964;2022-09-09T04:33:54;99488.50;;;19.19;59.29
29215;BME280;16252;49.816;7.964;2022-09-09T04:36:20;99454.91;;;18.90;59.46
29215;BME280;16252;49.816;7.964;2022-09-09T04:38:45;99471.38;;;19.03;59.63
29215;BME280;16252;49.816;7.964;2022-09-09T04:41:11;99465.38;;;18.93;59.47
29215;BME280;16252;49.816;7.964;2022-09-09T04:43:37;99457.16;;;18.87;59.67
29215;BME280;16252;49.816;7.964;2022-09-09T04:46:03;99487.59;;;19.12;59.61
29215;BME280;16252;49.816;7.964;2022-09-09T04:48:28;99490.09;;;19.13;59.48
29215;BME280;16252;49.816;7.964;2022-09-09T04:50:55;99506.47;;;19.20;59.63
29215;BME280;16252;49.816;7.964;2022-09-09T04:53:21;99508.53;;;19.18;59.61
29215;BME280;16252;49.816;7.964;2022-09-09T04:55:47;99500.00;;;19.06;59.70
29215;BME280;16252;49.816;7.964;2022-09-09T04:58:12;99497.78;;;19.10;59.76
29215;BME280;16252;49.816;7.964;2022-09-09T05:00:38;99504.03;;;19.10;59.75
29215;BME280;16252;49.816;7.964;2022-09-09T05:03:05;99453.50;;;18.79;59.92
29215;BME280;16252;49.816;7.964;2022-09-09T05:05:30;99488.19;;;18.99;59.82
29215;BME280;16252;49.816;7.964;2022-09-09T05:08:03;99493.72;;;19.05;59.65
29215;BME280;16252;49.816;7.964;2022-09-09T05:10:29;99493.28;;;19.02;59.93
29215;BME280;16252;49.816;7.964;2022-09-09T05:12:55;99489.91;;;19.00;59.80
29215;BME280;16252;49.816;7.964;2022-09-09T05:15:21;99503.44;;;19.00;59.90
29215;BME280;16252;49.816;7.964;2022-09-09T05:17:46;99518.13;;;19.05;59.92
29215;BME280;16252;49.816;7.964;2022-09-09T05:20:11;99509.72;;;19.00;59.84
29215;BME280;16252;49.816;7.964;2022-09-09T05:22:37;99513.47;;;18.99;59.86
29215;BME280;16252;49.816;7.964;2022-09-09T05:25:03;99501.00;;;18.90;60.16
29215;BME280;16252;49.816;7.964;2022-09-09T05:27:28;99514.28;;;19.00;60.21
29215;BME280;16252;49.816;7.964;2022-09-09T05:29:56;99511.97;;;18.97;60.48
29215;BME280;16252;49.816;7.964;2022-09-09T05:32:22;99523.72;;;19.04;60.13
29215;BME280;16252;49.816;7.964;2022-09-09T05:34:47;99509.41;;;18.95;60.17
29215;BME280;16252;49.816;7.964;2022-09-09T05:37:13;99514.00;;;18.95;60.37
29215;BME280;16252;49.816;7.964;2022-09-09T05:39:38;99509.25;;;18.97;60.37
29215;BME280;16252;49.816;7.964;2022-09-09T05:42:04;99465.22;;;18.72;60.45
29215;BME280;16252;49.816;7.964;2022-09-09T05:44:29;99518.13;;;19.05;60.54
29215;BME280;16252;49.816;7.964;2022-09-09T05:46:55;99443.66;;;18.55;60.41
29215;BME280;16252;49.816;7.964;2022-09-09T05:49:20;99525.44;;;19.05;60.43
29215;BME280;16252;49.816;7.964;2022-09-09T05:51:46;99534.22;;;19.07;60.62
29215;BME280;16252;49.816;7.964;2022-09-09T05:54:12;99528.81;;;19.07;60.52
29215;BME280;16252;49.816;7.964;2022-09-09T05:56:40;99533.00;;;19.10;60.50
29215;BME280;16252;49.816;7.964;2022-09-09T05:59:05;99524.88;;;19.10;60.61
29215;BME280;16252;49.816;7.964;2022-09-09T06:01:33;99526.75;;;19.09;60.83
29215;BME280;16252;49.816;7.964;2022-09-09T06:03:59;99543.97;;;19.31;60.72
29215;BME280;16252;49.816;7.964;2022-09-09T06:06:27;99553.72;;;19.40;60.71
29215;BME280;16252;49.816;7.964;2022-09-09T06:08:56;99544.19;;;19.44;60.61
29215;BME280;16252;49.816;7.964;2022-09-09T06:11:27;99558.97;;;19.57;60.49
29215;BME280;16252;49.816;7.964;2022-09-09T06:13:52;99532.59;;;19.51;60.35
29215;BME280;16252;49.816;7.964;2022-09-09T06:16:21;99535.88;;;19.61;60.36
29215;BME280;16252;49.816;7.964;2022-09-09T06:18:49;99539.84;;;19.73;60.01
29215;BME280;16252;49.816;7.964;2022-09-09T06:21:20;99544.72;;;19.78;60.18
29215;BME280;16252;49.816;7.964;2022-09-09T06:23:46;99521.69;;;19.74;60.27
29215;BME280;16252;49.816;7.964;2022-09-09T06:26:13;99548.16;;;19.86;60.17
29215;BME280;16252;49.816;7.964;2022-09-09T06:28:40;99544.22;;;19.89;60.09
29215;BME280;16252;49.816;7.964;2022-09-09T06:31:08;99547.03;;;19.96;60.09
29215;BME280;16252;49.816;7.964;2022-09-09T06:33:35;99540.19;;;20.00;60.01
29215;BME280;16252;49.816;7.964;2022-09-09T06:36:02;99477.13;;;19.53;60.03
29215;BME280;16252;49.816;7.964;2022-09-09T06:38:31;99534.47;;;19.95;59.96
29215;BME280;16252;49.816;7.964;2022-09-09T06:40:58;99488.06;;;19.60;59.85
29215;BME280;16252;49.816;7.964;2022-09-09T06:43:25;99540.75;;;19.95;59.91
29215;BME280;16252;49.816;7.964;2022-09-09T06:45:54;99541.50;;;20.04;60.02
29215;BME280;16252;49.816;7.964;2022-09-09T06:48:19;99510.44;;;19.91;60.06
29215;BME280;16252;49.816;7.964;2022-09-09T06:50:45;99524.16;;;20.05;60.15
29215;BME280;16252;49.816;7.964;2022-09-09T06:53:10;99539.34;;;20.14;59.87
29215;BME280;16252;49.816;7.964;2022-09-09T06:55:35;99525.09;;;20.12;59.72
29215;BME280;16252;49.816;7.964;2022-09-09T06:58:00;99542.69;;;20.16;59.74
29215;BME280;16252;49.816;7.964;2022-09-09T07:00:27;99542.97;;;20.21;59.51
29215;BME280;16252;49.816;7.964;2022-09-09T07:02:53;99527.25;;;20.17;59.72
29215;BME280;16252;49.816;7.964;2022-09-09T07:05:18;99502.81;;;20.02;59.50
29215;BME280;16252;49.816;7.964;2022-09-09T07:07:44;99528.03;;;20.32;59.58
29215;BME280;16252;49.816;7.964;2022-09-09T07:10:09;99452.88;;;19.81;59.64
29215;BME280;16252;49.816;7.964;2022-09-09T07:12:35;99528.88;;;20.32;59.54
29215;BME280;16252;49.816;7.964;2022-09-09T07:15:00;99545.28;;;20.39;59.60
29215;BME280;16252;49.816;7.964;2022-09-09T07:17:26;99538.78;;;20.40;59.33
29215;BME280;16252;49.816;7.964;2022-09-09T07:19:53;99525.41;;;20.39;59.23
29215;BME280;16252;49.816;7.964;2022-09-09T07:22:18;99528.56;;;20.42;59.20
29215;BME280;16252;49.816;7.964;2022-09-09T07:24:45;99467.41;;;20.10;59.23
29215;BME280;16252;49.816;7.964;2022-09-09T07:27:10;99499.47;;;20.36;59.05
29215;BME280;16252;49.816;7.964;2022-09-09T07:29:35;99537.63;;;20.64;58.88
29215;BME280;16252;49.816;7.964;2022-09-09T07:32:01;99505.78;;;20.58;59.43
29215;BME280;16252;49.816;7.964;2022-09-09T07:34:27;99524.75;;;20.73;59.13
29215;BME280;16252;49.816;7.964;2022-09-09T07:36:52;99546.28;;;20.96;59.24
29215;BME280;16252;49.816;7.964;2022-09-09T07:39:18;99528.34;;;21.02;58.39
29215;BME280;16252;49.816;7.964;2022-09-09T07:41:45;99533.25;;;21.13;57.87
29215;BME280;16252;49.816;7.964;2022-09-09T07:44:13;99541.91;;;21.23;57.72
29215;BME280;16252;49.816;7.964;2022-09-09T07:46:40;99530.97;;;21.16;57.37
29215;BME280;16252;49.816;7.964;2022-09-09T07:49:06;99531.63;;;21.18;57.43
29215;BME280;16252;49.816;7.964;2022-09-09T07:51:34;99552.84;;;21.30;57.11
29215;BME280;16252;49.816;7.964;2022-09-09T07:54:03;99557.59;;;21.42;56.96
29215;BME280;16252;49.816;7.964;2022-09-09T07:56:30;99549.41;;;21.42;56.77
29215;BME280;16252;49.816;7.964;2022-09-09T07:58:57;99556.34;;;21.45;57.01
29215;BME280;16252;49.816;7.964;2022-09-09T08:01:24;99577.41;;;21.64;56.82
29215;BME280;16252;49.816;7.964;2022-09-09T08:03:59;99579.16;;;21.79;56.31
29215;BME280;16252;49.816;7.964;2022-09-09T08:06:27;99556.06;;;21.68;56.24
29215;BME280;16252;49.816;7.964;2022-09-09T08:08:53;99561.94;;;21.72;56.01
29215;BME280;16252;49.816;7.964;2022-09-09T08:11:20;99567.94;;;21.89;56.28
29215;BME280;16252;49.816;7.964;2022-09-09T08:13:46;99557.47;;;21.92;56.53
29215;BME280;16252;49.816;7.964;2022-09-09T08:16:21;99571.59;;;22.09;55.83
29215;BME280;16252;49.816;7.964;2022-09-09T08:18:50;99584.47;;;22.22;56.26
29215;BME280;16252;49.816;7.964;2022-09-09T08:21:22;99590.38;;;22.32;55.79
29215;BME280;16252;49.816;7.964;2022-09-09T08:23:51;99583.66;;;22.35;55.54
29215;BME280;16252;49.816;7.964;2022-09-09T08:26:19;99582.66;;;22.42;55.10
29215;BME280;16252;49.816;7.964;2022-09-09T08:28:49;99564.78;;;22.33;55.28
29215;BME280;16252;49.816;7.964;2022-09-09T08:31:19;99537.50;;;22.20;54.94
29215;BME280;16252;49.816;7.964;2022-09-09T08:33:45;99537.94;;;22.23;54.53
29215;BME280;16252;49.816;7.964;2022-09-09T08:36:13;99577.00;;;22.50;54.56
29215;BME280;16252;49.816;7.964;2022-09-09T08:38:41;99592.97;;;22.54;54.45
29215;BME280;16252;49.816;7.964;2022-09-09T08:41:29;99587.97;;;22.64;55.13
29215;BME280;16252;49.816;7.964;2022-09-09T08:44:10;99576.44;;;22.62;54.32
29215;BME280;16252;49.816;7.964;2022-09-09T08:54:54;99583.81;;;22.88;53.69
29215;BME280;16252;49.816;7.964;2022-09-09T08:57:26;99536.19;;;22.77;53.15
29215;BME280;16252;49.816;7.964;2022-09-09T08:59:55;99580.53;;;23.12;52.82
29215;BME280;16252;49.816;7.964;2022-09-09T09:02:27;99578.44;;;23.14;52.97
29215;BME280;16252;49.816;7.964;2022-09-09T09:05:14;99566.66;;;23.21;53.18
29215;BME280;16252;49.816;7.964;2022-09-09T09:08:03;99595.00;;;23.46;52.69
29215;BME280;16252;49.816;7.964;2022-09-09T09:10:51;99593.53;;;23.70;53.42
29215;BME280;16252;49.816;7.964;2022-09-09T09:13:39;99587.78;;;24.05;53.96
29215;BME280;16252;49.816;7.964;2022-09-09T09:16:38;99577.75;;;24.51;53.86
29215;BME280;16252;49.816;7.964;2022-09-09T09:19:08;99574.28;;;25.00;51.84
29215;BME280;16252;49.816;7.964;2022-09-09T09:24:23;99578.22;;;26.05;49.88
29215;BME280;16252;49.816;7.964;2022-09-09T09:26:52;99586.28;;;26.55;48.66
29215;BME280;16252;49.816;7.964;2022-09-09T09:29:19;99591.22;;;27.07;48.45
29215;BME280;16252;49.816;7.964;2022-09-09T09:31:55;99580.00;;;27.50;48.96
29215;BME280;16252;49.816;7.964;2022-09-09T09:34:22;99558.81;;;27.62;45.84
29215;BME280;16252;49.816;7.964;2022-09-09T09:36:56;99597.81;;;27.95;46.59
29215;BME280;16252;49.816;7.964;2022-09-09T09:39:33;99563.63;;;27.67;45.30
29215;BME280;16252;49.816;7.964;2022-09-09T09:42:13;99574.47;;;27.38;45.96
29215;BME280;16252;49.816;7.964;2022-09-09T09:44:39;99598.47;;;27.19;44.72
29215;BME280;16252;49.816;7.964;2022-09-09T09:47:18;99590.72;;;26.98;44.97
29215;BME280;16252;49.816;7.964;2022-09-09T09:50:00;99602.47;;;26.75;46.12
29215;BME280;16252;49.816;7.964;2022-09-09T09:52:28;99602.13;;;26.53;45.31
29215;BME280;16252;49.816;7.964;2022-09-09T09:54:55;99606.53;;;26.35;47.76
29215;BME280;16252;49.816;7.964;2022-09-09T09:57:28;99583.25;;;26.08;48.77
29215;BME280;16252;49.816;7.964;2022-09-09T10:02:37;99584.00;;;26.15;51.03
29215;BME280;16252;49.816;7.964;2022-09-09T10:05:18;99574.16;;;26.44;49.28
29215;BME280;16252;49.816;7.964;2022-09-09T10:07:45;99577.81;;;26.87;48.68
29215;BME280;16252;49.816;7.964;2022-09-09T10:10:15;99577.47;;;27.25;47.94
29215;BME280;16252;49.816;7.964;2022-09-09T10:18:18;99584.69;;;28.37;46.70
29215;BME280;16252;49.816;7.964;2022-09-09T10:23:58;99577.56;;;28.65;46.06
29215;BME280;16252;49.816;7.964;2022-09-09T10:29:33;99572.44;;;29.48;43.52
29215;BME280;16252;49.816;7.964;2022-09-09T10:32:49;99575.59;;;29.95;42.62
29215;BME280;16252;49.816;7.964;2022-09-09T10:35:09;99569.44;;;30.49;41.73
29215;BME280;16252;49.816;7.964;2022-09-09T10:38:11;99566.97;;;31.02;44.72
29215;BME280;16252;49.816;7.964;2022-09-09T10:40:43;99560.88;;;31.37;40.47
29215;BME280;16252;49.816;7.964;2022-09-09T10:51:22;99576.78;;;32.47;37.62
29215;BME280;16252;49.816;7.964;2022-09-09T10:54:12;99576.88;;;32.68;39.45
29215;BME280;16252;49.816;7.964;2022-09-09T10:56:44;99565.00;;;32.83;36.95
29215;BME280;16252;49.816;7.964;2022-09-09T10:59:26;99570.81;;;32.96;37.89
29215;BME280;16252;49.816;7.964;2022-09-09T11:02:12;99561.44;;;33.13;39.30
29215;BME280;16252;49.816;7.964;2022-09-09T11:04:42;99544.25;;;33.11;35.83
29215;BME280;16252;49.816;7.964;2022-09-09T11:07:12;99547.56;;;33.33;35.57
29215;BME280;16252;49.816;7.964;2022-09-09T11:09:47;99550.59;;;33.47;35.92
29215;BME280;16252;49.816;7.964;2022-09-09T11:12:18;99540.34;;;33.53;35.09
29215;BME280;16252;49.816;7.964;2022-09-09T11:14:58;99538.97;;;33.50;34.45
29215;BME280;16252;49.816;7.964;2022-09-09T11:17:33;99478.84;;;32.94;34.41
29215;BME280;16252;49.816;7.964;2022-09-09T11:20:01;99507.38;;;32.85;33.76
29215;BME280;16252;49.816;7.964;2022-09-09T11:28:06;99532.94;;;31.66;35.89
29215;BME280;16252;49.816;7.964;2022-09-09T11:36:20;99539.47;;;29.75;36.73
29215;BME280;16252;49.816;7.964;2022-09-09T11:38:51;99581.44;;;29.26;37.24
29215;BME280;16252;49.816;7.964;2022-09-09T11:41:18;99548.66;;;28.50;39.75
29215;BME280;16252;49.816;7.964;2022-09-09T11:43:47;99591.91;;;28.26;40.50
29215;BME280;16252;49.816;7.964;2022-09-09T11:46:16;99596.59;;;27.79;41.25
29215;BME280;16252;49.816;7.964;2022-09-09T11:48:57;99586.31;;;27.27;41.97
29215;BME280;16252;49.816;7.964;2022-09-09T11:51:28;99592.38;;;26.87;42.49
29215;BME280;16252;49.816;7.964;2022-09-09T11:54:44;99607.28;;;26.43;43.66
29215;BME280;16252;49.816;7.964;2022-09-09T11:56:45;99608.38;;;25.86;44.62
29215;BME280;16252;49.816;7.964;2022-09-09T11:59:22;99608.63;;;25.35;44.00
29215;BME280;16252;49.816;7.964;2022-09-09T12:02:18;99591.94;;;24.73;45.13
29215;BME280;16252;49.816;7.964;2022-09-09T12:05:04;99587.09;;;24.23;45.72
29215;BME280;16252;49.816;7.964;2022-09-09T12:07:39;99615.38;;;23.90;46.32
29215;BME280;16252;49.816;7.964;2022-09-09T12:12:36;99602.97;;;23.21;46.95
29215;BME280;16252;49.816;7.964;2022-09-09T12:17:42;99594.94;;;22.86;47.16
29215;BME280;16252;49.816;7.964;2022-09-09T12:20:22;99570.16;;;22.61;47.36
29215;BME280;16252;49.816;7.964;2022-09-09T12:28:18;99596.31;;;22.56;48.25
29215;BME280;16252;49.816;7.964;2022-09-09T12:31:08;99595.50;;;22.68;47.29
29215;BME280;16252;49.816;7.964;2022-09-09T12:33:38;99601.19;;;22.67;48.35
29215;BME280;16252;49.816;7.964;2022-09-09T12:36:11;99588.81;;;22.71;48.31
29215;BME280;16252;49.816;7.964;2022-09-09T12:38:40;99593.44;;;22.84;47.93
29215;BME280;16252;49.816;7.964;2022-09-09T12:41:05;99524.81;;;22.47;47.24
29215;BME280;16252;49.816;7.964;2022-09-09T12:43:31;99579.88;;;22.97;47.91
29215;BME280;16252;49.816;7.964;2022-09-09T12:46:03;99580.50;;;23.06;47.54
29215;BME280;16252;49.816;7.964;2022-09-09T12:48:36;99575.06;;;23.19;47.41
29215;BME280;16252;49.816;7.964;2022-09-09T12:51:03;99585.34;;;23.44;46.29
29215;BME280;16252;49.816;7.964;2022-09-09T12:53:36;99539.19;;;23.15;46.80
29215;BME280;16252;49.816;7.964;2022-09-09T12:56:04;99584.94;;;23.40;47.02
29215;BME280;16252;49.816;7.964;2022-09-09T12:58:32;99577.59;;;23.41;46.73
29215;BME280;16252;49.816;7.964;2022-09-09T13:00:58;99576.72;;;23.47;47.05
29215;BME280;16252;49.816;7.964;2022-09-09T13:03:25;99568.53;;;23.47;46.79
29215;BME280;16252;49.816;7.964;2022-09-09T13:05:51;99565.19;;;23.51;46.77
29215;BME280;16252;49.816;7.964;2022-09-09T13:08:18;99517.56;;;23.27;46.94
29215;BME280;16252;49.816;7.964;2022-09-09T13:10:55;99567.06;;;23.64;46.75
29215;BME280;16252;49.816;7.964;2022-09-09T13:13:26;99545.25;;;23.51;46.38
29215;BME280;16252;49.816;7.964;2022-09-09T13:16:02;99565.59;;;23.68;46.53
29215;BME280;16252;49.816;7.964;2022-09-09T13:18:32;99545.44;;;23.56;46.81
29215;BME280;16252;49.816;7.964;2022-09-09T13:20:59;99498.25;;;23.22;46.74
29215;BME280;16252;49.816;7.964;2022-09-09T13:23:29;99554.06;;;23.53;46.91
29215;BME280;16252;49.816;7.964;2022-09-09T13:26:00;99546.06;;;23.51;47.11
29215;BME280;16252;49.816;7.964;2022-09-09T13:28:29;99499.28;;;23.21;47.11
29215;BME280;16252;49.816;7.964;2022-09-09T13:31:00;99550.25;;;23.54;46.99
29215;BME280;16252;49.816;7.964;2022-09-09T13:33:31;99536.22;;;23.44;47.27
29215;BME280;16252;49.816;7.964;2022-09-09T13:36:09;99555.28;;;23.57;47.16
29215;BME280;16252;49.816;7.964;2022-09-09T13:38:53;99525.72;;;23.47;46.93
29215;BME280;16252;49.816;7.964;2022-09-09T13:41:21;99549.44;;;23.60;47.48
29215;BME280;16252;49.816;7.964;2022-09-09T13:43:49;99530.56;;;23.45;47.29
29215;BME280;16252;49.816;7.964;2022-09-09T13:46:32;99548.38;;;23.68;47.31
29215;BME280;16252;49.816;7.964;2022-09-09T13:49:03;99530.94;;;23.49;47.68
29215;BME280;16252;49.816;7.964;2022-09-09T13:51:45;99549.00;;;23.63;47.21
29215;BME280;16252;49.816;7.964;2022-09-09T13:54:13;99543.53;;;23.56;47.68
29215;BME280;16252;49.816;7.964;2022-09-09T13:56:41;99543.34;;;23.51;48.02
29215;BME280;16252;49.816;7.964;2022-09-09T13:59:11;99482.31;;;23.12;47.96
29215;BME280;16252;49.816;7.964;2022-09-09T14:01:36;99525.94;;;23.26;48.62
29215;BME280;16252;49.816;7.964;2022-09-09T14:04:02;99550.28;;;23.34;48.68
29215;BME280;16252;49.816;7.964;2022-09-09T14:06:28;99534.53;;;23.29;48.55
29215;BME280;16252;49.816;7.964;2022-09-09T14:08:54;99537.25;;;23.29;48.51
29215;BME280;16252;49.816;7.964;2022-09-09T14:11:20;99534.53;;;23.29;48.74
29215;BME280;16252;49.816;7.964;2022-09-09T14:13:46;99540.41;;;23.26;48.68
29215;BME280;16252;49.816;7.964;2022-09-09T14:16:12;99538.53;;;23.27;48.80
29215;BME280;16252;49.816;7.964;2022-09-09T14:18:37;99541.69;;;23.24;48.95
29215;BME280;16252;49.816;7.964;2022-09-09T14:21:04;99555.53;;;23.29;49.41
29215;BME280;16252;49.816;7.964;2022-09-09T14:23:29;99564.16;;;23.26;49.72
29215;BME280;16252;49.816;7.964;2022-09-09T14:25:55;99551.78;;;23.23;49.66
29215;BME280;16252;49.816;7.964;2022-09-09T14:28:20;99519.66;;;22.99;50.21
29215;BME280;16252;49.816;7.964;2022-09-09T14:30:45;99528.69;;;23.06;50.31
29215;BME280;16252;49.816;7.964;2022-09-09T14:33:13;99542.13;;;23.21;49.37
29215;BME280;16252;49.816;7.964;2022-09-09T14:35:39;99517.56;;;23.07;49.80
29215;BME280;16252;49.816;7.964;2022-09-09T14:38:06;99501.78;;;22.96;49.89
29215;BME280;16252;49.816;7.964;2022-09-09T14:40:34;99519.03;;;23.10;49.70
29215;BME280;16252;49.816;7.964;2022-09-09T14:42:59;99507.28;;;23.09;49.53
29215;BME280;16252;49.816;7.964;2022-09-09T14:45:24;99539.59;;;23.32;49.52